| time (UTC) | temp C | wind direction | speed KPH | gust KPH | rain 1hr cm | rain 24hr cm | rain mn cm | humidity % | barometer mb |
| 20260508075400 | 16 | 181 | 6.4 | 19.3 | 0.00 | 0.89 | 0.89 | 87 | 1009.9 |
| 20260508074620 | 16 | 150 | 6.4 | 19.3 | 0.00 | 0.89 | 0.89 | 87 | 1009.7 |
| 20260508074119 | 16 | 307 | 4.8 | 17.7 | 0.00 | 0.89 | 0.89 | 87 | 1009.7 |
| 20260508073619 | 16 | 277 | 6.4 | 17.7 | 0.00 | 0.89 | 0.89 | 87 | 1009.2 |
| 20260508073113 | 16 | 323 | 6.4 | 17.7 | 0.00 | 0.89 | 0.89 | 87 | 1009.4 |
| 20260508072836 | 16 | 322 | 8.0 | 19.3 | 0.03 | 0.89 | 0.89 | 88 | 1009.3 |
| 20260508072112 | 16 | 300 | 11.3 | 20.9 | 0.03 | 0.89 | 0.89 | 87 | 1009.1 |
| 20260508071842 | 16 | 311 | 9.7 | 20.9 | 0.05 | 0.89 | 0.89 | 87 | 1009.2 |
| 20260508071113 | 16 | 304 | 8.0 | 20.9 | 0.05 | 0.89 | 0.89 | 88 | 1009.0 |
| 20260508070612 | 16 | 278 | 8.0 | 20.9 | 0.08 | 0.89 | 0.89 | 88 | 1008.8 |
| 20260508070113 | 16 | 47 | 9.7 | 29.0 | 0.13 | 0.89 | 0.89 | 88 | 1009.0 |
| 20260508065613 | 16 | 300 | 11.3 | 29.0 | 0.23 | 0.89 | 0.89 | 87 | 1009.1 |
| 20260508065113 | 16 | 255 | 12.9 | 30.6 | 0.23 | 0.89 | 0.89 | 87 | 1008.9 |
| 20260508064608 | 16 | 266 | 14.5 | 41.8 | 0.25 | 0.89 | 0.89 | 87 | 1008.3 |
| 20260508064108 | 16 | 239 | 14.5 | 41.8 | 0.33 | 0.89 | 0.89 | 87 | 1009.4 |
| 20260508063613 | 17 | 211 | 12.9 | 33.8 | 0.41 | 0.89 | 0.89 | 88 | 1009.5 |
| 20260508063109 | 17 | 235 | 12.9 | 33.8 | 0.43 | 0.89 | 0.89 | 90 | 1009.8 |
| 20260508062609 | 17 | 285 | 14.5 | 33.8 | 0.43 | 0.86 | 0.86 | 90 | 1009.5 |
| 20260508062109 | 17 | 269 | 14.5 | 32.2 | 0.51 | 0.86 | 0.86 | 91 | 1009.1 |
| 20260508061608 | 17 | 288 | 14.5 | 32.2 | 0.53 | 0.84 | 0.84 | 91 | 1008.7 |
| 20260508061109 | 18 | 276 | 16.1 | 30.6 | 0.61 | 0.81 | 0.81 | 90 | 1009.0 |
| 20260508060609 | 18 | 255 | 14.5 | 33.8 | 0.61 | 0.79 | 0.79 | 89 | 1008.8 |
| 20260508060108 | 20 | 250 | 8.0 | 33.8 | 0.56 | 0.76 | 0.76 | 88 | 1008.5 |
| 20260508055602 | 20 | 291 | 4.8 | 12.9 | 0.43 | 0.64 | 0.66 | 90 | 1008.5 |
| 20260508055108 | 20 | 303 | 4.8 | 12.9 | 0.43 | 0.64 | 0.64 | 90 | 1008.5 |
| 20260508054603 | 20 | 309 | 4.8 | 11.3 | 0.43 | 0.61 | 0.61 | 89 | 1008.3 |
| 20260508054103 | 20 | 352 | 4.8 | 14.5 | 0.33 | 0.53 | 0.56 | 88 | 1008.2 |
| 20260508053605 | 20 | 313 | 6.4 | 16.1 | 0.28 | 0.48 | 0.51 | 88 | 1008.3 |
| 20260508053100 | 20 | 48 | 8.0 | 16.1 | 0.25 | 0.46 | 0.46 | 87 | 1008.5 |
| 20260508052600 | 21 | 338 | 8.0 | 17.7 | 0.23 | 0.43 | 0.43 | 86 | 1008.4 |
| 20260508052101 | 21 | 326 | 6.4 | 17.7 | 0.15 | 0.36 | 0.36 | 85 | 1008.2 |
| 20260508051600 | 21 | 325 | 6.4 | 16.1 | 0.10 | 0.30 | 0.33 | 84 | 1007.9 |
| 20260508051100 | 21 | 307 | 8.0 | 16.1 | 0.00 | 0.20 | 0.20 | 83 | 1007.4 |
| 20260508050559 | 21 | 290 | 6.4 | 16.1 | 0.00 | 0.20 | 0.20 | 83 | 1007.1 |
| 20260508050100 | 21 | 356 | 6.4 | 12.9 | 0.00 | 0.20 | 0.20 | 83 | 1007.0 |
| 20260508045559 | 21 | 337 | 6.4 | 16.1 | 0.00 | 0.20 | 0.20 | 83 | 1007.0 |
| 20260508045103 | 21 | 317 | 4.8 | 16.1 | 0.03 | 0.20 | 0.20 | 84 | 1007.0 |
| 20260508044601 | 21 | 35 | 4.8 | 8.0 | 0.05 | 0.20 | 0.20 | 86 | 1007.0 |
| 20260508044313 | 20 | 56 | 4.8 | 8.0 | 0.05 | 0.20 | 0.20 | 87 | 1007.1 |
| 20260508043544 | 20 | 49 | 3.2 | 8.0 | 0.05 | 0.20 | 0.20 | 88 | 1006.9 |
| 20260508043039 | 20 | 46 | 3.2 | 8.0 | 0.05 | 0.20 | 0.20 | 87 | 1007.0 |
| 20260508042750 | 20 | 75 | 4.8 | 8.0 | 0.05 | 0.20 | 0.20 | 86 | 1007.0 |
| 20260508042027 | 20 | 70 | 3.2 | 8.0 | 0.05 | 0.20 | 0.20 | 86 | 1007.0 |
| 20260508041520 | 21 | 98 | 3.2 | 11.3 | 0.05 | 0.20 | 0.20 | 85 | 1007.1 |
| 20260508041241 | 21 | 81 | 4.8 | 11.3 | 0.10 | 0.20 | 0.20 | 85 | 1007.0 |
| 20260508040509 | 21 | 53 | 4.8 | 14.5 | 0.18 | 0.20 | 0.20 | 84 | 1007.1 |
| 20260508040231 | 21 | 91 | 4.8 | 14.5 | 0.20 | 0.20 | 0.20 | 83 | 1007.3 |
| 20260508035455 | 21 | 89 | 6.4 | 19.3 | 0.20 | 0.20 | 0.20 | 83 | 1007.5 |
| 20260508034949 | 21 | 32 | 6.4 | 19.3 | 0.15 | 0.15 | 0.18 | 81 | 1007.6 |
| 20260508034442 | 21 | 297 | 8.0 | 17.7 | 0.15 | 0.15 | 0.15 | 80 | 1007.6 |
| 20260508033936 | 21 | 301 | 8.0 | 17.7 | 0.15 | 0.15 | 0.15 | 80 | 1007.7 |
| 20260508033431 | 21 | 259 | 9.7 | 20.9 | 0.15 | 0.15 | 0.15 | 81 | 1007.7 |
| 20260508032924 | 21 | 320 | 9.7 | 22.5 | 0.15 | 0.15 | 0.15 | 80 | 1007.5 |
| 20260508032642 | 21 | 316 | 6.4 | 22.5 | 0.15 | 0.15 | 0.15 | 80 | 1007.6 |
| 20260508031912 | 21 | 335 | 8.0 | 27.4 | 0.15 | 0.15 | 0.15 | 80 | 1007.8 |
| 20260508031408 | 22 | 249 | 12.9 | 30.6 | 0.15 | 0.15 | 0.15 | 77 | 1007.7 |
| 20260508030905 | 22 | 314 | 14.5 | 32.2 | 0.08 | 0.08 | 0.08 | 75 | 1007.7 |
| 20260508030404 | 23 | 274 | 12.9 | 32.2 | 0.00 | 0.00 | 0.00 | 69 | 1008.0 |
| 20260508025902 | 25 | 194 | 14.5 | 30.6 | 0.00 | 0.00 | 0.00 | 66 | 1008.1 |
| 20260508025402 | 25 | 205 | 14.5 | 32.2 | 0.00 | 0.00 | 0.00 | 64 | 1007.7 |
| 20260508024914 | 26 | 248 | 14.5 | 32.2 | 0.00 | 0.00 | 0.00 | 62 | 1007.9 |
| 20260508024359 | 26 | 272 | 17.7 | 43.5 | 0.00 | 0.00 | 0.00 | 61 | 1007.9 |
| 20260508024353 | 27 | 281 | 22.5 | 61.2 | 0.00 | 0.00 | 0.00 | 59 | 1007.6 |
| 20260508023624 | 28 | 290 | 19.3 | 61.2 | 0.00 | 0.00 | 0.00 | 54 | 1007.6 |
| 20260508023119 | 29 | 338 | 11.3 | 30.6 | 0.00 | 0.00 | 0.00 | 56 | 1005.5 |
| 20260508022619 | 29 | 259 | 9.7 | 22.5 | 0.00 | 0.00 | 0.00 | 56 | 1005.5 |
| 20260508021856 | 29 | 281 | 12.9 | 24.1 | 0.00 | 0.00 | 0.00 | 55 | 1005.3 |
| 20260508021357 | 29 | 324 | 12.9 | 30.6 | 0.00 | 0.00 | 0.00 | 55 | 1005.2 |
| 20260508020857 | 29 | 330 | 14.5 | 30.6 | 0.00 | 0.00 | 0.00 | 55 | 1005.2 |
| 20260508020356 | 29 | 325 | 12.9 | 30.6 | 0.00 | 0.00 | 0.00 | 55 | 1004.8 |
| 20260508020120 | 29 | 131 | 12.9 | 30.6 | 0.00 | 0.00 | 0.00 | 55 | 1004.7 |
| 20260508015402 | 29 | 340 | 11.3 | 27.4 | 0.00 | 0.00 | 0.00 | 55 | 1004.9 |
| 20260508014854 | 29 | 319 | 12.9 | 27.4 | 0.00 | 0.00 | 0.00 | 55 | 1005.0 |
| 20260508014349 | 29 | 53 | 12.9 | 25.7 | 0.00 | 0.00 | 0.00 | 55 | 1005.1 |
| 20260508013842 | 29 | 334 | 9.7 | 25.7 | 0.00 | 0.00 | 0.00 | 55 | 1005.3 |
| 20260508013337 | 29 | 278 | 8.0 | 25.7 | 0.00 | 0.00 | 0.00 | 55 | 1005.1 |
| 20260508013055 | 28 | 3 | 6.4 | 19.3 | 0.00 | 0.00 | 0.00 | 56 | 1005.4 |
| 20260508012325 | 28 | 18 | 6.4 | 19.3 | 0.00 | 0.00 | 0.00 | 57 | 1005.3 |
| 20260508011819 | 27 | 19 | 4.8 | 19.3 | 0.00 | 0.00 | 0.00 | 59 | 1005.3 |
| 20260508011536 | 26 | 38 | 3.2 | 9.7 | 0.00 | 0.00 | 0.00 | 63 | 1005.4 |
| 20260508011035 | 26 | 51 | 3.2 | 9.7 | 0.00 | 0.00 | 0.00 | 64 | 1005.3 |
| 20260508010743 | 26 | 103 | 4.8 | 11.3 | 0.00 | 0.00 | 0.00 | 64 | 1005.3 |
| 20260508010019 | 26 | 68 | 3.2 | 11.3 | 0.00 | 0.00 | 0.00 | 64 | 1005.3 |
| 20260508005250 | 26 | 76 | 3.2 | 9.7 | 0.00 | 0.00 | 0.00 | 64 | 1005.4 |
| 20260508005009 | 26 | 83 | 3.2 | 9.7 | 0.00 | 0.00 | 0.00 | 65 | 1005.4 |
| 20260508004243 | 26 | 69 | 3.2 | 8.0 | 0.00 | 0.00 | 0.00 | 64 | 1005.4 |
| 20260508003731 | 26 | 69 | 1.6 | 4.8 | 0.00 | 0.00 | 0.00 | 64 | 1005.5 |
| 20260508003715 | 26 | 88 | 1.6 | 8.0 | 0.00 | 0.00 | 0.00 | 64 | 1005.5 |
| 20260508002719 | 26 | 77 | 3.2 | 8.0 | 0.00 | 0.00 | 0.00 | 65 | 1005.4 |
| 20260508002213 | 26 | 115 | 3.2 | 6.4 | 0.00 | 0.00 | 0.00 | 65 | 1005.3 |
| 20260508001707 | 26 | 82 | 3.2 | 9.7 | 0.00 | 0.00 | 0.00 | 65 | 1005.4 |
| 20260508001200 | 26 | 29 | 4.8 | 9.7 | 0.00 | 0.00 | 0.00 | 65 | 1005.3 |
| 20260508000656 | 26 | 13 | 4.8 | 14.5 | 0.00 | 0.00 | 0.00 | 66 | 1005.1 |
| 20260508000413 | 26 | 53 | 6.4 | 14.5 | 0.00 | 0.00 | 0.00 | 65 | 1005.3 |
| 20260507235642 | 26 | 56 | 4.8 | 11.3 | 0.00 | 0.00 | 0.00 | 65 | 1005.2 |
| 20260507235138 | 26 | 53 | 3.2 | 11.3 | 0.00 | 0.00 | 0.00 | 64 | 1005.2 |
| 20260507234631 | 27 | 79 | 3.2 | 8.0 | 0.00 | 0.00 | 0.00 | 63 | 1005.3 |
| 20260507234124 | 27 | 95 | 3.2 | 9.7 | 0.00 | 0.00 | 0.00 | 63 | 1005.5 |
| 20260507233114 | 26 | 84 | 1.6 | 4.8 | 0.00 | 0.00 | 0.00 | 64 | 1005.6 |
| 20260507232612 | 26 | 128 | 1.6 | 6.4 | 0.00 | 0.00 | 0.00 | 65 | 1005.7 |
| 20260507232102 | 26 | 88 | 1.6 | 6.4 | 0.00 | 0.00 | 0.00 | 65 | 1005.7 |
| 20260507231554 | 26 | 93 | 1.6 | 6.4 | 0.00 | 0.00 | 0.00 | 65 | 1005.7 |
| 20260507231309 | 26 | 80 | 1.6 | 4.8 | 0.00 | 0.00 | 0.00 | 65 | 1005.7 |
| 20260507230538 | 26 | 79 | 1.6 | 4.8 | 0.00 | 0.00 | 0.00 | 66 | 1005.7 |
| 20260507230032 | 26 | 75 | 1.6 | 4.8 | 0.00 | 0.00 | 0.00 | 67 | 1005.7 |
| 20260507225528 | 26 | 75 | 1.6 | 4.8 | 0.00 | 0.00 | 0.00 | 67 | 1005.8 |
| 20260507225033 | 26 | 65 | 3.2 | 6.4 | 0.00 | 0.00 | 0.00 | 66 | 1005.7 |
| 20260507224520 | 26 | 56 | 1.6 | 6.4 | 0.00 | 0.00 | 0.00 | 66 | 1005.7 |
| 20260507224304 | 27 | 76 | 1.6 | 1.6 | 0.00 | 0.00 | 0.00 | 65 | 1005.6 |
| 20260507223625 | 27 | 76 | 1.6 | 4.8 | 0.00 | 0.00 | 0.00 | 65 | 1005.7 |
| 20260507223119 | 27 | 0.0 | 0.0 | 0.00 | 0.00 | 0.00 | 65 | 1005.5 | |
| 20260507222632 | 27 | 0.0 | 0.0 | 0.00 | 0.00 | 0.00 | 65 | 1005.5 | |
| 20260507213159 | 28 | 60 | 3.2 | 3.2 | 0.00 | 0.00 | 0.00 | 59 | 1006.4 |
| 20260507212527 | 29 | 60 | 4.8 | 8.0 | 0.00 | 0.00 | 0.00 | 58 | 1006.5 |
| 20260507212025 | 29 | 72 | 3.2 | 9.7 | 0.00 | 0.00 | 0.00 | 57 | 1006.4 |
| 20260507211528 | 29 | 33 | 3.2 | 9.7 | 0.00 | 0.00 | 0.00 | 56 | 1006.4 |
| 20260507211247 | 30 | 22 | 1.6 | 9.7 | 0.00 | 0.00 | 0.00 | 56 | 1006.5 |
| 20260507210533 | 30 | 74 | 1.6 | 6.4 | 0.00 | 0.00 | 0.00 | 56 | 1006.4 |
| 20260507210027 | 30 | 321 | 0.0 | 4.8 | 0.00 | 0.00 | 0.00 | 56 | 1006.5 |
| 20260507205527 | 30 | 79 | 0.0 | 3.2 | 0.00 | 0.00 | 0.00 | 56 | 1006.5 |
| 20260507205031 | 30 | 80 | 1.6 | 9.7 | 0.00 | 0.00 | 0.00 | 56 | 1006.5 |
| 20260507205015 | 30 | 44 | 4.8 | 12.9 | 0.00 | 0.00 | 0.00 | 57 | 1006.4 |
| 20260507204030 | 30 | 59 | 4.8 | 12.9 | 0.00 | 0.00 | 0.00 | 57 | 1006.4 |
| 20260507203534 | 29 | 17 | 4.8 | 9.7 | 0.00 | 0.00 | 0.00 | 57 | 1006.4 |
| 20260507203026 | 30 | 315 | 4.8 | 4.8 | 0.00 | 0.00 | 0.00 | 57 | 1006.4 |
| 20260507202532 | 30 | 0.0 | 0.0 | 0.00 | 0.00 | 0.00 | 56 | 1006.2 | |
| 20260507201428 | 30 | 53 | 3.2 | 16.1 | 0.00 | 0.00 | 0.00 | 55 | 1006.4 |
| 20260507200706 | 30 | 73 | 3.2 | 6.4 | 0.00 | 0.00 | 0.00 | 55 | 1006.3 |
| 20260507200203 | 30 | 79 | 1.6 | 6.4 | 0.00 | 0.00 | 0.00 | 55 | 1006.4 |
| 20260507195704 | 30 | 79 | 1.6 | 6.4 | 0.00 | 0.00 | 0.00 | 54 | 1006.4 |
| 20260507195202 | 30 | 80 | 1.6 | 8.0 | 0.00 | 0.00 | 0.00 | 54 | 1006.4 |
| 20260507194701 | 31 | 50 | 3.2 | 8.0 | 0.00 | 0.00 | 0.00 | 53 | 1006.4 |
| 20260507194428 | 31 | 0.0 | 0.0 | 0.00 | 0.00 | 0.00 | 52 | 1006.5 | |
| 20260507193705 | 31 | 0.0 | 0.0 | 0.00 | 0.00 | 0.00 | 52 | 1006.5 | |
| 20260507191854 | 31 | 313 | 4.8 | 16.1 | 0.00 | 0.00 | 0.00 | 51 | 1006.7 |
| 20260507191352 | 31 | 332 | 6.4 | 16.1 | 0.00 | 0.00 | 0.00 | 51 | 1006.8 |
| 20260507190852 | 31 | 342 | 6.4 | 16.1 | 0.00 | 0.00 | 0.00 | 50 | 1006.7 |
| 20260507190352 | 31 | 331 | 6.4 | 17.7 | 0.00 | 0.00 | 0.00 | 50 | 1006.5 |
| 20260507185852 | 31 | 316 | 4.8 | 17.7 | 0.00 | 0.00 | 0.00 | 50 | 1006.6 |
| 20260507185351 | 31 | 31 | 6.4 | 19.3 | 0.00 | 0.00 | 0.00 | 50 | 1006.6 |
| 20260507184854 | 31 | 354 | 8.0 | 19.3 | 0.00 | 0.00 | 0.00 | 50 | 1006.7 |
| 20260507184353 | 31 | 338 | 8.0 | 24.1 | 0.00 | 0.00 | 0.00 | 50 | 1006.7 |
| 20260507183850 | 31 | 304 | 6.4 | 24.1 | 0.00 | 0.00 | 0.00 | 50 | 1006.8 |
| 20260507183350 | 31 | 326 | 3.2 | 11.3 | 0.00 | 0.00 | 0.00 | 51 | 1006.6 |
| 20260507183109 | 31 | 348 | 4.8 | 11.3 | 0.00 | 0.00 | 0.00 | 50 | 1006.6 |
| 20260507182347 | 31 | 345 | 6.4 | 16.1 | 0.00 | 0.00 | 0.00 | 50 | 1006.6 |
| 20260507181846 | 31 | 337 | 8.0 | 16.1 | 0.00 | 0.00 | 0.00 | 50 | 1006.5 |
| 20260507181346 | 31 | 345 | 6.4 | 16.1 | 0.00 | 0.00 | 0.00 | 50 | 1006.5 |
| 20260507181112 | 31 | 291 | 4.8 | 9.7 | 0.00 | 0.00 | 0.00 | 50 | 1006.5 |
| 20260507180346 | 32 | 326 | 4.8 | 16.1 | 0.00 | 0.00 | 0.00 | 50 | 1006.4 |
| 20260507175846 | 32 | 323 | 6.4 | 16.1 | 0.00 | 0.00 | 0.00 | 49 | 1006.3 |
| 20260507175610 | 32 | 326 | 6.4 | 20.9 | 0.00 | 0.00 | 0.00 | 50 | 1006.4 |
| 20260507174846 | 32 | 21 | 8.0 | 20.9 | 0.00 | 0.00 | 0.00 | 50 | 1006.4 |
| 20260507174346 | 32 | 32 | 8.0 | 19.3 | 0.00 | 0.00 | 0.00 | 50 | 1006.4 |
| 20260507173846 | 32 | 313 | 8.0 | 19.3 | 0.00 | 0.00 | 0.00 | 49 | 1006.4 |
| 20260507173345 | 32 | 19 | 9.7 | 27.4 | 0.00 | 0.00 | 0.00 | 49 | 1006.5 |
| 20260507172845 | 32 | 316 | 11.3 | 32.2 | 0.00 | 0.00 | 0.00 | 50 | 1006.5 |
| 20260507172346 | 32 | 326 | 12.9 | 32.2 | 0.00 | 0.00 | 0.00 | 49 | 1006.5 |
| 20260507171845 | 32 | 323 | 14.5 | 30.6 | 0.00 | 0.00 | 0.00 | 49 | 1006.4 |
| 20260507171345 | 32 | 29 | 14.5 | 30.6 | 0.00 | 0.00 | 0.00 | 49 | 1006.4 |
| 20260507171333 | 32 | 324 | 14.5 | 22.5 | 0.00 | 0.00 | 0.00 | 50 | 1006.4 |
| 20260507170400 | 32 | 0.0 | 0.0 | 0.00 | 0.00 | 0.00 | 50 | 1006.5 |